Gary, Minnesota
Current Conditions -  °F | °C
As of 1:55 PM on Tuesday 21 Oct 2014 (Local Time) from K3N8 Reporting Station
Clear Clear  
Wind Chill: 59°   Ceiling: Unl
Heat Index: 59°   Visibility: 10mi
Dew Point: 40°   Wind: 21mph
Humidity: 48%   Direction: 140°SE
Pressure: 29.99"   Gusts: 25mph
Location:  47.37°N, 96.27°W
Report Text: K3N8 211855Z AUTO 14018G22KT 10SM CLR 15/04 A2999 RMK AO2 T01510042
Loading
Personal Weather Stations






























Interactive Weather Map
Tropical Storm Tracking
New forecast layout! Learn more

10-Day Weather Forecast

Advertisements
Track Severe Weather on mobile